Terminal Aerodrome Forecast
Issued by NWS Bismarck, ND

Home | Current Version | Previous Version | Text Only | Print | Product List | Glossary Off
Versions: 1 2 3 4 5 6 7 8 9 10 11 12 13 14 15 16 17

000
FTUS43 KBIS 020529
TAFBIS
TAF
KBIS 020529Z 0206/0306 20006KT P6SM SCT200
     FM021200 18008KT P6SM SCT120 SCT180
     FM021800 23014G22KT P6SM BKN120
     FM022200 27015KT P6SM BKN120
     FM030100 35008KT P6SM SCT120=

USA.gov is the U.S. government's official web portal to all federal, state and local government web resources and services.